Terminal Aerodrome Forecast
Issued by NWS

Home | Current Version | Previous Version | Text Only | Print | Product List | Glossary On
Versions: 1 2 3 4 5 6 7 8 9 10 11 12 13 14 15 16 17 18
000
FTUS45 KPSR 250222 AAA
TAFIPL
TAF AMD
KIPL 250222Z 2502/2524 14008KT P6SM SKC
     FM250400 21006KT P6SM FEW250
     FM250600 26007KT P6SM BKN250
     FM251900 28014G24KT P6SM FEW150=

USA.gov is the U.S. government's official web portal to all federal, state and local government web resources and services.